Terminal Aerodrome Forecast
Issued by NWS Green Bay, WI

Home | Current Version | Previous Version | Graphics & Text | Print | Product List | Glossary Off
Versions: 1 2 3 4 5 6 7 8 9 10 11 12 13 14 15 16 17 18 19 20 21 22 23 24 25 26 27 28 29

000
FTUS43 KGRB 140500
TAFGRB
TAF
KGRB 140520Z 1406/1506 25005KT P6SM BKN080
     FM141400 29010KT P6SM VCSH SCT040 BKN070
      TEMPO 1417/1421 6SM -SHRA OVC035
     FM142100 31009KT P6SM BKN035 OVC060
      TEMPO 1503/1506 6SM -SHRA BKN015=

USA.gov is the U.S. government's official web portal to all federal, state and local government web resources and services.